sensor_id;sensor_type;location;lat;lon;timestamp;P1;durP1;ratioP1;P2;durP2;ratioP2
63807;SDS011;49961;43.970;22.868;2023-03-21T00:00:58;25.33;;;18.47;;
63807;SDS011;49961;43.970;22.868;2023-03-21T00:02:02;22.63;;;16.30;;
63807;SDS011;49961;43.970;22.868;2023-03-21T00:03:03;28.63;;;18.93;;
63807;SDS011;49961;43.970;22.868;2023-03-21T00:04:04;23.80;;;15.00;;
63807;SDS011;49961;43.970;22.868;2023-03-21T00:05:04;28.63;;;16.10;;
63807;SDS011;49961;43.970;22.868;2023-03-21T00:06:05;24.17;;;15.40;;
63807;SDS011;49961;43.970;22.868;2023-03-21T00:07:07;26.23;;;15.87;;
63807;SDS011;49961;43.970;22.868;2023-03-21T00:08:08;17.33;;;11.93;;
63807;SDS011;49961;43.970;22.868;2023-03-21T00:09:08;21.20;;;13.20;;
63807;SDS011;49961;43.970;22.868;2023-03-21T00:10:09;19.30;;;9.20;;
63807;SDS011;49961;43.970;22.868;2023-03-21T00:11:10;14.70;;;7.93;;
63807;SDS011;49961;43.970;22.868;2023-03-21T00:12:11;12.40;;;8.00;;
63807;SDS011;49961;43.970;22.868;2023-03-21T00:13:14;28.47;;;13.10;;
63807;SDS011;49961;43.970;22.868;2023-03-21T00:14:15;32.57;;;15.40;;
63807;SDS011;49961;43.970;22.868;2023-03-21T00:15:18;13.10;;;7.10;;
63807;SDS011;49961;43.970;22.868;2023-03-21T00:16:19;15.07;;;9.10;;
63807;SDS011;49961;43.970;22.868;2023-03-21T00:17:20;13.83;;;9.90;;
63807;SDS011;49961;43.970;22.868;2023-03-21T00:18:21;13.27;;;9.37;;
63807;SDS011;49961;43.970;22.868;2023-03-21T00:19:23;9.23;;;5.87;;
63807;SDS011;49961;43.970;22.868;2023-03-21T00:20:25;13.97;;;11.17;;
63807;SDS011;49961;43.970;22.868;2023-03-21T00:21:25;14.43;;;9.97;;
63807;SDS011;49961;43.970;22.868;2023-03-21T00:22:33;12.43;;;9.23;;
63807;SDS011;49961;43.970;22.868;2023-03-21T00:23:34;17.33;;;11.77;;
63807;SDS011;49961;43.970;22.868;2023-03-21T00:24:35;17.57;;;13.23;;
63807;SDS011;49961;43.970;22.868;2023-03-21T00:25:36;18.77;;;13.60;;
63807;SDS011;49961;43.970;22.868;2023-03-21T00:26:36;19.00;;;13.00;;
63807;SDS011;49961;43.970;22.868;2023-03-21T00:27:37;17.20;;;11.80;;
63807;SDS011;49961;43.970;22.868;2023-03-21T00:28:38;15.10;;;10.47;;
63807;SDS011;49961;43.970;22.868;2023-03-21T00:29:40;12.43;;;9.67;;
63807;SDS011;49961;43.970;22.868;2023-03-21T00:30:40;14.00;;;10.60;;
63807;SDS011;49961;43.970;22.868;2023-03-21T00:31:41;12.50;;;8.90;;
63807;SDS011;49961;43.970;22.868;2023-03-21T00:32:41;11.57;;;9.30;;
63807;SDS011;49961;43.970;22.868;2023-03-21T00:33:42;10.33;;;7.50;;
63807;SDS011;49961;43.970;22.868;2023-03-21T00:34:43;13.90;;;8.27;;
63807;SDS011;49961;43.970;22.868;2023-03-21T00:35:44;10.47;;;8.20;;
63807;SDS011;49961;43.970;22.868;2023-03-21T00:36:47;12.80;;;8.50;;
63807;SDS011;49961;43.970;22.868;2023-03-21T00:37:47;10.73;;;7.90;;
63807;SDS011;49961;43.970;22.868;2023-03-21T00:38:47;9.63;;;7.37;;
63807;SDS011;49961;43.970;22.868;2023-03-21T00:39:48;8.97;;;6.50;;
63807;SDS011;49961;43.970;22.868;2023-03-21T00:40:48;9.23;;;6.80;;
63807;SDS011;49961;43.970;22.868;2023-03-21T00:41:49;9.43;;;6.50;;
63807;SDS011;49961;43.970;22.868;2023-03-21T00:42:50;7.97;;;5.60;;
63807;SDS011;49961;43.970;22.868;2023-03-21T00:43:50;9.03;;;5.97;;
63807;SDS011;49961;43.970;22.868;2023-03-21T00:44:54;9.70;;;5.57;;
63807;SDS011;49961;43.970;22.868;2023-03-21T00:45:55;8.87;;;5.90;;
63807;SDS011;49961;43.970;22.868;2023-03-21T00:46:57;8.03;;;5.67;;
63807;SDS011;49961;43.970;22.868;2023-03-21T00:48:01;9.37;;;6.50;;
63807;SDS011;49961;43.970;22.868;2023-03-21T00:49:02;8.63;;;5.80;;
63807;SDS011;49961;43.970;22.868;2023-03-21T00:50:03;8.70;;;5.73;;
63807;SDS011;49961;43.970;22.868;2023-03-21T00:51:10;6.83;;;5.60;;
63807;SDS011;49961;43.970;22.868;2023-03-21T00:52:12;6.23;;;4.43;;
63807;SDS011;49961;43.970;22.868;2023-03-21T00:53:13;8.20;;;5.43;;
63807;SDS011;49961;43.970;22.868;2023-03-21T00:54:14;9.10;;;5.63;;
63807;SDS011;49961;43.970;22.868;2023-03-21T00:55:15;8.60;;;5.97;;
63807;SDS011;49961;43.970;22.868;2023-03-21T00:56:17;6.87;;;5.23;;
63807;SDS011;49961;43.970;22.868;2023-03-21T00:57:17;8.37;;;5.80;;
63807;SDS011;49961;43.970;22.868;2023-03-21T00:58:18;6.40;;;5.17;;
63807;SDS011;49961;43.970;22.868;2023-03-21T00:59:19;8.33;;;5.00;;
63807;SDS011;49961;43.970;22.868;2023-03-21T01:00:20;6.00;;;4.57;;
63807;SDS011;49961;43.970;22.868;2023-03-21T01:01:21;7.60;;;4.67;;
63807;SDS011;49961;43.970;22.868;2023-03-21T01:02:21;5.73;;;4.20;;
63807;SDS011;49961;43.970;22.868;2023-03-21T01:03:25;10.07;;;4.37;;
63807;SDS011;49961;43.970;22.868;2023-03-21T01:04:26;5.27;;;4.53;;
63807;SDS011;49961;43.970;22.868;2023-03-21T01:05:28;7.83;;;4.63;;
63807;SDS011;49961;43.970;22.868;2023-03-21T01:06:53;6.50;;;4.73;;
63807;SDS011;49961;43.970;22.868;2023-03-21T01:07:54;6.80;;;4.80;;
63807;SDS011;49961;43.970;22.868;2023-03-21T01:08:54;7.10;;;4.87;;
63807;SDS011;49961;43.970;22.868;2023-03-21T01:09:55;8.20;;;4.80;;
63807;SDS011;49961;43.970;22.868;2023-03-21T01:10:55;8.13;;;4.97;;
63807;SDS011;49961;43.970;22.868;2023-03-21T01:11:56;8.13;;;5.33;;
63807;SDS011;49961;43.970;22.868;2023-03-21T01:12:56;8.17;;;5.30;;
63807;SDS011;49961;43.970;22.868;2023-03-21T01:13:57;6.33;;;4.70;;
63807;SDS011;49961;43.970;22.868;2023-03-21T01:14:58;7.93;;;4.93;;
63807;SDS011;49961;43.970;22.868;2023-03-21T01:15:58;9.37;;;5.37;;
63807;SDS011;49961;43.970;22.868;2023-03-21T01:16:59;7.57;;;4.87;;
63807;SDS011;49961;43.970;22.868;2023-03-21T01:18:00;9.23;;;5.27;;
63807;SDS011;49961;43.970;22.868;2023-03-21T01:19:02;7.97;;;5.23;;
63807;SDS011;49961;43.970;22.868;2023-03-21T01:20:03;9.67;;;5.70;;
63807;SDS011;49961;43.970;22.868;2023-03-21T01:21:07;8.17;;;5.63;;
63807;SDS011;49961;43.970;22.868;2023-03-21T01:22:10;8.37;;;5.70;;
63807;SDS011;49961;43.970;22.868;2023-03-21T01:23:11;8.33;;;5.80;;
63807;SDS011;49961;43.970;22.868;2023-03-21T01:24:14;9.47;;;5.73;;
63807;SDS011;49961;43.970;22.868;2023-03-21T01:25:14;8.60;;;5.57;;
63807;SDS011;49961;43.970;22.868;2023-03-21T01:26:15;7.63;;;6.00;;
63807;SDS011;49961;43.970;22.868;2023-03-21T01:27:16;8.70;;;5.97;;
63807;SDS011;49961;43.970;22.868;2023-03-21T01:28:17;8.93;;;6.20;;
63807;SDS011;49961;43.970;22.868;2023-03-21T01:29:17;8.03;;;5.67;;
63807;SDS011;49961;43.970;22.868;2023-03-21T01:30:18;9.83;;;5.40;;
63807;SDS011;49961;43.970;22.868;2023-03-21T01:31:18;10.77;;;5.80;;
63807;SDS011;49961;43.970;22.868;2023-03-21T01:32:19;21.00;;;7.80;;
63807;SDS011;49961;43.970;22.868;2023-03-21T01:33:20;11.10;;;6.03;;
63807;SDS011;49961;43.970;22.868;2023-03-21T01:34:21;8.10;;;5.70;;
63807;SDS011;49961;43.970;22.868;2023-03-21T01:35:21;12.00;;;5.93;;
63807;SDS011;49961;43.970;22.868;2023-03-21T01:36:23;8.77;;;5.37;;
63807;SDS011;49961;43.970;22.868;2023-03-21T01:37:25;10.17;;;5.70;;
63807;SDS011;49961;43.970;22.868;2023-03-21T01:38:26;7.17;;;5.30;;
63807;SDS011;49961;43.970;22.868;2023-03-21T01:39:27;7.13;;;5.57;;
63807;SDS011;49961;43.970;22.868;2023-03-21T01:40:27;8.33;;;5.67;;
63807;SDS011;49961;43.970;22.868;2023-03-21T01:41:30;9.00;;;6.07;;
63807;SDS011;49961;43.970;22.868;2023-03-21T01:42:33;11.10;;;6.33;;
63807;SDS011;49961;43.970;22.868;2023-03-21T01:43:34;8.33;;;5.90;;
63807;SDS011;49961;43.970;22.868;2023-03-21T01:44:52;8.27;;;6.07;;
63807;SDS011;49961;43.970;22.868;2023-03-21T01:47:00;8.47;;;6.00;;
63807;SDS011;49961;43.970;22.868;2023-03-21T01:48:00;9.40;;;6.00;;
63807;SDS011;49961;43.970;22.868;2023-03-21T01:49:02;8.23;;;5.90;;
63807;SDS011;49961;43.970;22.868;2023-03-21T01:50:09;7.80;;;5.60;;
63807;SDS011;49961;43.970;22.868;2023-03-21T01:51:10;8.73;;;6.10;;
63807;SDS011;49961;43.970;22.868;2023-03-21T01:52:33;9.80;;;5.93;;
63807;SDS011;49961;43.970;22.868;2023-03-21T01:53:36;8.53;;;6.03;;
63807;SDS011;49961;43.970;22.868;2023-03-21T01:54:38;9.13;;;6.10;;
63807;SDS011;49961;43.970;22.868;2023-03-21T01:55:40;9.03;;;6.03;;
63807;SDS011;49961;43.970;22.868;2023-03-21T01:56:42;10.17;;;6.30;;
63807;SDS011;49961;43.970;22.868;2023-03-21T01:57:50;7.70;;;5.70;;
63807;SDS011;49961;43.970;22.868;2023-03-21T01:58:53;7.90;;;5.30;;
63807;SDS011;49961;43.970;22.868;2023-03-21T02:00:02;7.43;;;5.80;;
63807;SDS011;49961;43.970;22.868;2023-03-21T02:01:11;10.10;;;5.90;;
63807;SDS011;49961;43.970;22.868;2023-03-21T02:02:16;9.13;;;5.70;;
63807;SDS011;49961;43.970;22.868;2023-03-21T02:03:24;8.40;;;6.03;;
63807;SDS011;49961;43.970;22.868;2023-03-21T02:04:28;10.27;;;5.90;;
63807;SDS011;49961;43.970;22.868;2023-03-21T02:05:36;8.13;;;5.67;;
63807;SDS011;49961;43.970;22.868;2023-03-21T02:06:45;10.83;;;6.40;;
63807;SDS011;49961;43.970;22.868;2023-03-21T02:07:59;8.53;;;5.87;;
63807;SDS011;49961;43.970;22.868;2023-03-21T02:09:01;8.67;;;5.90;;
63807;SDS011;49961;43.970;22.868;2023-03-21T02:10:08;7.93;;;5.30;;
63807;SDS011;49961;43.970;22.868;2023-03-21T02:11:11;7.23;;;5.53;;
63807;SDS011;49961;43.970;22.868;2023-03-21T02:12:11;7.70;;;5.40;;
63807;SDS011;49961;43.970;22.868;2023-03-21T02:13:12;9.33;;;6.07;;
63807;SDS011;49961;43.970;22.868;2023-03-21T02:14:14;8.90;;;5.80;;
63807;SDS011;49961;43.970;22.868;2023-03-21T02:15:17;7.90;;;5.77;;
63807;SDS011;49961;43.970;22.868;2023-03-21T02:16:21;11.23;;;6.63;;
63807;SDS011;49961;43.970;22.868;2023-03-21T02:18:01;6.93;;;5.53;;
63807;SDS011;49961;43.970;22.868;2023-03-21T02:19:37;11.37;;;6.20;;
63807;SDS011;49961;43.970;22.868;2023-03-21T02:23:28;9.47;;;6.10;;
63807;SDS011;49961;43.970;22.868;2023-03-21T02:27:27;23.73;;;12.80;;
63807;SDS011;49961;43.970;22.868;2023-03-21T02:39:18;8.10;;;5.30;;
63807;SDS011;49961;43.970;22.868;2023-03-21T02:44:23;7.93;;;5.60;;
63807;SDS011;49961;43.970;22.868;2023-03-21T02:45:33;8.83;;;4.80;;
63807;SDS011;49961;43.970;22.868;2023-03-21T02:47:02;7.97;;;5.20;;
63807;SDS011;49961;43.970;22.868;2023-03-21T02:48:08;9.30;;;5.70;;
63807;SDS011;49961;43.970;22.868;2023-03-21T02:49:19;7.20;;;5.23;;
63807;SDS011;49961;43.970;22.868;2023-03-21T02:50:25;8.70;;;5.53;;
63807;SDS011;49961;43.970;22.868;2023-03-21T02:51:26;10.10;;;4.90;;
63807;SDS011;49961;43.970;22.868;2023-03-21T02:52:30;9.03;;;4.77;;
63807;SDS011;49961;43.970;22.868;2023-03-21T02:53:36;9.13;;;5.07;;
63807;SDS011;49961;43.970;22.868;2023-03-21T02:54:38;7.23;;;5.10;;
63807;SDS011;49961;43.970;22.868;2023-03-21T02:55:42;6.63;;;4.80;;
63807;SDS011;49961;43.970;22.868;2023-03-21T02:56:45;9.97;;;5.37;;
63807;SDS011;49961;43.970;22.868;2023-03-21T02:57:48;9.83;;;5.83;;
63807;SDS011;49961;43.970;22.868;2023-03-21T02:58:50;8.50;;;4.77;;
63807;SDS011;49961;43.970;22.868;2023-03-21T02:59:51;10.40;;;5.83;;
63807;SDS011;49961;43.970;22.868;2023-03-21T03:00:53;10.53;;;5.37;;
63807;SDS011;49961;43.970;22.868;2023-03-21T03:01:55;10.50;;;5.40;;
63807;SDS011;49961;43.970;22.868;2023-03-21T03:02:57;8.60;;;5.20;;
63807;SDS011;49961;43.970;22.868;2023-03-21T03:03:58;9.57;;;5.20;;
63807;SDS011;49961;43.970;22.868;2023-03-21T03:04:58;7.23;;;5.30;;
63807;SDS011;49961;43.970;22.868;2023-03-21T03:05:59;7.03;;;4.87;;
63807;SDS011;49961;43.970;22.868;2023-03-21T03:12:19;7.63;;;5.33;;
63807;SDS011;49961;43.970;22.868;2023-03-21T03:15:12;8.30;;;5.17;;
63807;SDS011;49961;43.970;22.868;2023-03-21T03:16:25;9.83;;;5.23;;
63807;SDS011;49961;43.970;22.868;2023-03-21T03:17:47;10.63;;;4.87;;
63807;SDS011;49961;43.970;22.868;2023-03-21T03:19:10;9.97;;;5.17;;
63807;SDS011;49961;43.970;22.868;2023-03-21T03:21:43;7.50;;;4.90;;
63807;SDS011;49961;43.970;22.868;2023-03-21T03:24:13;8.30;;;4.97;;
63807;SDS011;49961;43.970;22.868;2023-03-21T03:25:41;7.77;;;5.10;;
63807;SDS011;49961;43.970;22.868;2023-03-21T03:26:54;9.03;;;5.03;;
63807;SDS011;49961;43.970;22.868;2023-03-21T03:27:58;9.70;;;5.43;;
63807;SDS011;49961;43.970;22.868;2023-03-21T03:29:02;10.67;;;4.70;;
63807;SDS011;49961;43.970;22.868;2023-03-21T03:30:06;14.17;;;6.13;;
63807;SDS011;49961;43.970;22.868;2023-03-21T03:31:10;9.40;;;4.80;;
63807;SDS011;49961;43.970;22.868;2023-03-21T03:33:24;8.03;;;5.23;;
63807;SDS011;49961;43.970;22.868;2023-03-21T03:34:30;18.17;;;6.70;;
63807;SDS011;49961;43.970;22.868;2023-03-21T03:35:38;9.00;;;5.80;;
63807;SDS011;49961;43.970;22.868;2023-03-21T03:36:39;9.20;;;4.90;;
63807;SDS011;49961;43.970;22.868;2023-03-21T03:37:47;8.00;;;4.77;;
63807;SDS011;49961;43.970;22.868;2023-03-21T03:38:51;14.77;;;5.90;;
63807;SDS011;49961;43.970;22.868;2023-03-21T03:40:04;15.13;;;5.87;;
63807;SDS011;49961;43.970;22.868;2023-03-21T03:41:09;8.13;;;5.40;;
63807;SDS011;49961;43.970;22.868;2023-03-21T03:42:22;10.77;;;5.23;;
63807;SDS011;49961;43.970;22.868;2023-03-21T03:43:29;10.77;;;5.30;;
63807;SDS011;49961;43.970;22.868;2023-03-21T03:44:34;9.53;;;5.43;;
63807;SDS011;49961;43.970;22.868;2023-03-21T03:45:59;8.63;;;5.10;;
63807;SDS011;49961;43.970;22.868;2023-03-21T03:47:00;10.03;;;5.83;;
63807;SDS011;49961;43.970;22.868;2023-03-21T03:49:25;8.27;;;5.37;;
63807;SDS011;49961;43.970;22.868;2023-03-21T03:51:52;10.40;;;5.67;;
63807;SDS011;49961;43.970;22.868;2023-03-21T03:53:11;8.17;;;5.20;;
63807;SDS011;49961;43.970;22.868;2023-03-21T03:54:36;10.10;;;5.97;;
63807;SDS011;49961;43.970;22.868;2023-03-21T03:55:39;8.63;;;5.17;;
63807;SDS011;49961;43.970;22.868;2023-03-21T03:56:40;8.80;;;5.90;;
63807;SDS011;49961;43.970;22.868;2023-03-21T03:57:41;8.37;;;5.10;;
63807;SDS011;49961;43.970;22.868;2023-03-21T03:58:42;10.83;;;5.73;;
63807;SDS011;49961;43.970;22.868;2023-03-21T03:59:44;7.43;;;5.23;;
63807;SDS011;49961;43.970;22.868;2023-03-21T04:00:45;9.50;;;5.23;;
63807;SDS011;49961;43.970;22.868;2023-03-21T04:01:46;8.27;;;5.37;;
63807;SDS011;49961;43.970;22.868;2023-03-21T04:02:47;8.57;;;6.03;;
63807;SDS011;49961;43.970;22.868;2023-03-21T04:03:47;8.43;;;5.80;;
63807;SDS011;49961;43.970;22.868;2023-03-21T04:04:48;7.90;;;5.77;;
63807;SDS011;49961;43.970;22.868;2023-03-21T04:05:51;8.47;;;6.53;;
63807;SDS011;49961;43.970;22.868;2023-03-21T04:06:53;10.10;;;7.90;;
63807;SDS011;49961;43.970;22.868;2023-03-21T04:07:54;12.87;;;9.13;;
63807;SDS011;49961;43.970;22.868;2023-03-21T04:08:54;12.37;;;9.47;;
63807;SDS011;49961;43.970;22.868;2023-03-21T04:09:56;11.23;;;8.93;;
63807;SDS011;49961;43.970;22.868;2023-03-21T04:10:56;10.60;;;8.87;;
63807;SDS011;49961;43.970;22.868;2023-03-21T04:11:57;11.20;;;7.77;;
63807;SDS011;49961;43.970;22.868;2023-03-21T04:12:58;9.57;;;7.90;;
63807;SDS011;49961;43.970;22.868;2023-03-21T04:13:58;10.40;;;8.30;;
63807;SDS011;49961;43.970;22.868;2023-03-21T04:14:58;12.17;;;8.83;;
63807;SDS011;49961;43.970;22.868;2023-03-21T04:15:59;12.33;;;8.97;;
63807;SDS011;49961;43.970;22.868;2023-03-21T04:16:59;11.70;;;8.70;;
63807;SDS011;49961;43.970;22.868;2023-03-21T04:18:00;10.33;;;8.90;;
63807;SDS011;49961;43.970;22.868;2023-03-21T04:19:01;12.53;;;9.00;;
63807;SDS011;49961;43.970;22.868;2023-03-21T04:20:01;10.13;;;8.37;;
63807;SDS011;49961;43.970;22.868;2023-03-21T04:21:10;12.73;;;9.40;;
63807;SDS011;49961;43.970;22.868;2023-03-21T04:22:12;12.20;;;8.97;;
63807;SDS011;49961;43.970;22.868;2023-03-21T04:23:13;10.00;;;8.37;;
63807;SDS011;49961;43.970;22.868;2023-03-21T04:24:13;10.80;;;8.87;;
63807;SDS011;49961;43.970;22.868;2023-03-21T04:25:14;12.23;;;8.97;;
63807;SDS011;49961;43.970;22.868;2023-03-21T04:26:14;11.50;;;8.63;;
63807;SDS011;49961;43.970;22.868;2023-03-21T04:27:15;12.33;;;8.80;;
63807;SDS011;49961;43.970;22.868;2023-03-21T04:28:15;13.10;;;8.60;;
63807;SDS011;49961;43.970;22.868;2023-03-21T04:29:16;12.70;;;8.63;;
63807;SDS011;49961;43.970;22.868;2023-03-21T04:30:16;10.40;;;8.23;;
63807;SDS011;49961;43.970;22.868;2023-03-21T04:31:18;9.03;;;7.90;;
63807;SDS011;49961;43.970;22.868;2023-03-21T04:32:19;10.77;;;7.93;;
63807;SDS011;49961;43.970;22.868;2023-03-21T04:33:23;11.67;;;8.53;;
63807;SDS011;49961;43.970;22.868;2023-03-21T04:34:24;11.77;;;8.30;;
63807;SDS011;49961;43.970;22.868;2023-03-21T04:35:27;16.27;;;9.10;;
63807;SDS011;49961;43.970;22.868;2023-03-21T04:36:27;12.77;;;8.60;;
63807;SDS011;49961;43.970;22.868;2023-03-21T04:37:37;14.73;;;8.40;;
63807;SDS011;49961;43.970;22.868;2023-03-21T04:38:38;11.77;;;8.30;;
63807;SDS011;49961;43.970;22.868;2023-03-21T04:39:38;12.80;;;7.67;;
63807;SDS011;49961;43.970;22.868;2023-03-21T04:40:39;11.97;;;8.73;;
63807;SDS011;49961;43.970;22.868;2023-03-21T04:41:40;11.57;;;8.57;;
63807;SDS011;49961;43.970;22.868;2023-03-21T04:42:42;15.73;;;9.33;;
63807;SDS011;49961;43.970;22.868;2023-03-21T04:43:43;12.17;;;8.57;;
63807;SDS011;49961;43.970;22.868;2023-03-21T04:44:44;25.33;;;9.53;;
63807;SDS011;49961;43.970;22.868;2023-03-21T04:45:45;26.17;;;9.53;;
63807;SDS011;49961;43.970;22.868;2023-03-21T04:46:45;30.83;;;8.83;;
63807;SDS011;49961;43.970;22.868;2023-03-21T04:47:46;16.47;;;8.93;;
63807;SDS011;49961;43.970;22.868;2023-03-21T04:48:46;14.60;;;8.73;;
63807;SDS011;49961;43.970;22.868;2023-03-21T04:49:47;16.87;;;8.20;;
63807;SDS011;49961;43.970;22.868;2023-03-21T04:50:48;11.97;;;8.23;;
63807;SDS011;49961;43.970;22.868;2023-03-21T04:51:49;15.17;;;8.80;;
63807;SDS011;49961;43.970;22.868;2023-03-21T04:52:49;12.83;;;8.20;;
63807;SDS011;49961;43.970;22.868;2023-03-21T04:53:50;15.53;;;8.63;;
63807;SDS011;49961;43.970;22.868;2023-03-21T04:54:51;13.90;;;8.30;;
63807;SDS011;49961;43.970;22.868;2023-03-21T04:55:51;16.20;;;8.67;;
63807;SDS011;49961;43.970;22.868;2023-03-21T04:56:52;14.17;;;9.00;;
63807;SDS011;49961;43.970;22.868;2023-03-21T04:57:52;13.53;;;9.13;;
63807;SDS011;49961;43.970;22.868;2023-03-21T04:58:53;14.20;;;8.90;;
63807;SDS011;49961;43.970;22.868;2023-03-21T04:59:53;17.87;;;9.73;;
63807;SDS011;49961;43.970;22.868;2023-03-21T05:00:54;12.90;;;9.63;;
63807;SDS011;49961;43.970;22.868;2023-03-21T05:01:56;13.23;;;8.97;;
63807;SDS011;49961;43.970;22.868;2023-03-21T05:02:57;20.90;;;10.40;;
63807;SDS011;49961;43.970;22.868;2023-03-21T05:03:59;16.57;;;9.40;;
63807;SDS011;49961;43.970;22.868;2023-03-21T05:05:00;17.20;;;10.50;;
63807;SDS011;49961;43.970;22.868;2023-03-21T05:06:01;17.67;;;10.50;;
63807;SDS011;49961;43.970;22.868;2023-03-21T05:07:02;22.53;;;10.47;;
63807;SDS011;49961;43.970;22.868;2023-03-21T05:08:03;17.17;;;10.97;;
63807;SDS011;49961;43.970;22.868;2023-03-21T05:09:04;17.50;;;10.63;;
63807;SDS011;49961;43.970;22.868;2023-03-21T05:10:06;14.40;;;10.60;;
63807;SDS011;49961;43.970;22.868;2023-03-21T05:11:09;16.13;;;10.77;;
63807;SDS011;49961;43.970;22.868;2023-03-21T05:12:10;23.87;;;11.87;;
63807;SDS011;49961;43.970;22.868;2023-03-21T05:13:10;21.53;;;11.40;;
63807;SDS011;49961;43.970;22.868;2023-03-21T05:14:13;19.13;;;10.70;;
63807;SDS011;49961;43.970;22.868;2023-03-21T05:15:15;24.40;;;12.03;;
63807;SDS011;49961;43.970;22.868;2023-03-21T05:16:15;19.20;;;11.93;;
63807;SDS011;49961;43.970;22.868;2023-03-21T05:17:15;17.53;;;12.13;;
63807;SDS011;49961;43.970;22.868;2023-03-21T05:18:23;19.60;;;12.83;;
63807;SDS011;49961;43.970;22.868;2023-03-21T05:19:26;17.23;;;12.00;;
63807;SDS011;49961;43.970;22.868;2023-03-21T05:20:33;20.80;;;12.67;;
63807;SDS011;49961;43.970;22.868;2023-03-21T05:21:34;18.77;;;12.63;;
63807;SDS011;49961;43.970;22.868;2023-03-21T05:22:40;17.30;;;12.60;;
63807;SDS011;49961;43.970;22.868;2023-03-21T05:23:41;16.10;;;12.17;;
63807;SDS011;49961;43.970;22.868;2023-03-21T05:24:41;16.17;;;12.30;;
63807;SDS011;49961;43.970;22.868;2023-03-21T05:25:42;18.93;;;12.70;;
63807;SDS011;49961;43.970;22.868;2023-03-21T05:26:43;15.30;;;12.27;;
63807;SDS011;49961;43.970;22.868;2023-03-21T05:27:49;19.40;;;12.17;;
63807;SDS011;49961;43.970;22.868;2023-03-21T05:28:53;18.40;;;12.40;;
63807;SDS011;49961;43.970;22.868;2023-03-21T05:29:53;16.23;;;12.37;;
63807;SDS011;49961;43.970;22.868;2023-03-21T05:30:53;16.43;;;12.83;;
63807;SDS011;49961;43.970;22.868;2023-03-21T05:31:54;18.97;;;12.97;;
63807;SDS011;49961;43.970;22.868;2023-03-21T05:32:55;18.93;;;12.73;;
63807;SDS011;49961;43.970;22.868;2023-03-21T05:33:56;21.50;;;12.60;;
63807;SDS011;49961;43.970;22.868;2023-03-21T05:34:56;17.53;;;13.03;;
63807;SDS011;49961;43.970;22.868;2023-03-21T05:35:57;20.33;;;13.30;;
63807;SDS011;49961;43.970;22.868;2023-03-21T05:36:58;18.20;;;13.07;;
63807;SDS011;49961;43.970;22.868;2023-03-21T05:37:58;19.13;;;13.23;;
63807;SDS011;49961;43.970;22.868;2023-03-21T05:38:59;35.97;;;15.70;;
63807;SDS011;49961;43.970;22.868;2023-03-21T05:40:00;19.07;;;13.83;;
63807;SDS011;49961;43.970;22.868;2023-03-21T05:41:02;15.80;;;13.03;;
63807;SDS011;49961;43.970;22.868;2023-03-21T05:42:03;19.03;;;13.73;;
63807;SDS011;49961;43.970;22.868;2023-03-21T05:43:03;28.27;;;17.77;;
63807;SDS011;49961;43.970;22.868;2023-03-21T05:44:04;21.07;;;13.67;;
63807;SDS011;49961;43.970;22.868;2023-03-21T05:45:05;18.07;;;14.37;;
63807;SDS011;49961;43.970;22.868;2023-03-21T05:46:06;24.23;;;14.40;;
63807;SDS011;49961;43.970;22.868;2023-03-21T05:47:06;17.90;;;13.77;;
63807;SDS011;49961;43.970;22.868;2023-03-21T05:48:07;22.77;;;14.10;;
63807;SDS011;49961;43.970;22.868;2023-03-21T05:49:08;23.97;;;14.30;;
63807;SDS011;49961;43.970;22.868;2023-03-21T05:50:10;26.90;;;15.53;;
63807;SDS011;49961;43.970;22.868;2023-03-21T05:51:12;29.77;;;16.80;;
63807;SDS011;49961;43.970;22.868;2023-03-21T05:52:12;30.93;;;18.27;;
63807;SDS011;49961;43.970;22.868;2023-03-21T05:53:13;23.00;;;14.87;;
63807;SDS011;49961;43.970;22.868;2023-03-21T05:54:13;23.53;;;15.63;;
63807;SDS011;49961;43.970;22.868;2023-03-21T05:55:15;24.90;;;16.27;;
63807;SDS011;49961;43.970;22.868;2023-03-21T05:56:16;30.10;;;19.80;;
63807;SDS011;49961;43.970;22.868;2023-03-21T05:57:16;26.53;;;18.57;;
63807;SDS011;49961;43.970;22.868;2023-03-21T05:58:18;28.23;;;16.77;;
63807;SDS011;49961;43.970;22.868;2023-03-21T05:59:18;26.30;;;15.90;;
63807;SDS011;49961;43.970;22.868;2023-03-21T06:00:19;24.53;;;15.93;;
63807;SDS011;49961;43.970;22.868;2023-03-21T06:01:21;22.27;;;16.27;;
63807;SDS011;49961;43.970;22.868;2023-03-21T06:02:21;28.50;;;16.23;;
63807;SDS011;49961;43.970;22.868;2023-03-21T06:03:21;22.17;;;16.17;;
63807;SDS011;49961;43.970;22.868;2023-03-21T06:04:22;21.93;;;16.17;;
63807;SDS011;49961;43.970;22.868;2023-03-21T06:05:22;21.47;;;15.80;;
63807;SDS011;49961;43.970;22.868;2023-03-21T06:06:23;23.40;;;15.97;;
63807;SDS011;49961;43.970;22.868;2023-03-21T06:07:23;23.30;;;16.07;;
63807;SDS011;49961;43.970;22.868;2023-03-21T06:08:24;22.23;;;16.17;;
63807;SDS011;49961;43.970;22.868;2023-03-21T06:09:24;27.70;;;16.33;;
63807;SDS011;49961;43.970;22.868;2023-03-21T06:10:25;24.03;;;16.53;;
63807;SDS011;49961;43.970;22.868;2023-03-21T06:11:27;20.77;;;16.70;;
63807;SDS011;49961;43.970;22.868;2023-03-21T06:12:30;22.53;;;16.27;;
63807;SDS011;49961;43.970;22.868;2023-03-21T06:13:30;18.57;;;16.13;;
63807;SDS011;49961;43.970;22.868;2023-03-21T06:14:31;18.43;;;16.33;;
63807;SDS011;49961;43.970;22.868;2023-03-21T06:15:32;20.97;;;15.83;;
63807;SDS011;49961;43.970;22.868;2023-03-21T06:16:32;18.80;;;15.47;;
63807;SDS011;49961;43.970;22.868;2023-03-21T06:17:33;18.57;;;15.07;;
63807;SDS011;49961;43.970;22.868;2023-03-21T06:18:33;20.83;;;15.87;;
63807;SDS011;49961;43.970;22.868;2023-03-21T06:19:34;18.47;;;15.63;;
63807;SDS011;49961;43.970;22.868;2023-03-21T06:20:34;18.73;;;16.03;;
63807;SDS011;49961;43.970;22.868;2023-03-21T06:21:35;18.47;;;16.23;;
63807;SDS011;49961;43.970;22.868;2023-03-21T06:22:35;19.20;;;16.30;;
63807;SDS011;49961;43.970;22.868;2023-03-21T06:23:36;18.87;;;16.60;;
63807;SDS011;49961;43.970;22.868;2023-03-21T06:24:36;18.70;;;16.10;;
63807;SDS011;49961;43.970;22.868;2023-03-21T06:25:37;20.40;;;16.63;;
63807;SDS011;49961;43.970;22.868;2023-03-21T06:26:37;18.83;;;16.17;;
63807;SDS011;49961;43.970;22.868;2023-03-21T06:27:38;20.47;;;15.43;;
63807;SDS011;49961;43.970;22.868;2023-03-21T06:28:38;22.83;;;16.43;;
63807;SDS011;49961;43.970;22.868;2023-03-21T06:29:39;19.73;;;16.40;;
63807;SDS011;49961;43.970;22.868;2023-03-21T06:30:40;19.47;;;16.67;;
63807;SDS011;49961;43.970;22.868;2023-03-21T06:31:40;21.23;;;16.53;;
63807;SDS011;49961;43.970;22.868;2023-03-21T06:32:41;18.03;;;16.07;;
63807;SDS011;49961;43.970;22.868;2023-03-21T06:33:41;18.77;;;15.50;;
63807;SDS011;49961;43.970;22.868;2023-03-21T06:34:42;21.23;;;16.47;;
63807;SDS011;49961;43.970;22.868;2023-03-21T06:35:42;18.50;;;16.10;;
63807;SDS011;49961;43.970;22.868;2023-03-21T06:36:43;19.70;;;16.37;;
63807;SDS011;49961;43.970;22.868;2023-03-21T06:37:45;20.03;;;15.80;;
63807;SDS011;49961;43.970;22.868;2023-03-21T06:38:48;23.03;;;17.10;;
63807;SDS011;49961;43.970;22.868;2023-03-21T06:39:48;18.57;;;16.20;;
63807;SDS011;49961;43.970;22.868;2023-03-21T06:40:49;20.60;;;17.07;;
63807;SDS011;49961;43.970;22.868;2023-03-21T06:41:50;19.83;;;15.90;;
63807;SDS011;49961;43.970;22.868;2023-03-21T06:42:50;18.30;;;15.70;;